Time;durP1;ratioP1;P1;durP2;ratioP2;P2;SDS_P1;SDS_P2;PMS_P1;PMS_P2;Temp;Humidity;BMP_temperature;BMP_pressure;BME280_temperature;BME280_humidity;BME280_pressure;Samples;Min_cycle;Max_cycle;Signal;HPM_P1;HPM_P2
2023/12/14 00:00:20;;;;;;;55.03;27.57;;;8.20;99.90;;;;;;5075019;28;20186;-78
2023/12/14 00:02:46;;;;;;;55.70;26.83;;;8.20;99.90;;;;;;5074518;28;20187;-78
2023/12/14 00:05:11;;;;;;;48.40;25.13;;;8.20;99.90;;;;;;5074438;28;20183;-77
2023/12/14 00:07:37;;;;;;;53.73;25.50;;;8.10;99.90;;;;;;5074405;28;20203;-77
2023/12/14 00:10:04;;;;;;;50.73;24.70;;;8.20;99.90;;;;;;5074427;28;20186;-77
2023/12/14 00:12:30;;;;;;;55.70;26.30;;;8.20;99.90;;;;;;5074056;28;20670;-77
2023/12/14 00:14:56;;;;;;;43.93;23.80;;;8.20;99.90;;;;;;5074044;28;20177;-77
2023/12/14 00:17:21;;;;;;;45.43;24.17;;;8.20;99.90;;;;;;5074261;28;20237;-78
2023/12/14 00:19:47;;;;;;;51.23;24.23;;;8.20;99.90;;;;;;5074065;28;20175;-77
2023/12/14 00:22:12;;;;;;;45.33;23.80;;;8.10;99.90;;;;;;5073887;28;20269;-77
2023/12/14 00:24:38;;;;;;;45.77;23.37;;;8.10;99.90;;;;;;5074774;28;20210;-77
2023/12/14 00:27:03;;;;;;;52.13;24.60;;;8.10;99.90;;;;;;5073840;28;20269;-77
2023/12/14 00:29:29;;;;;;;46.37;22.93;;;8.10;99.90;;;;;;5073914;28;20175;-77
2023/12/14 00:31:55;;;;;;;58.57;25.57;;;8.10;99.90;;;;;;5073778;28;20589;-77
2023/12/14 00:34:20;;;;;;;53.53;24.73;;;8.10;99.90;;;;;;5074102;28;20167;-77
2023/12/14 00:36:46;;;;;;;55.73;26.00;;;8.10;99.90;;;;;;5074130;28;20177;-77
2023/12/14 00:39:11;;;;;;;49.57;23.47;;;8.00;99.90;;;;;;5074269;28;20224;-78
2023/12/14 00:41:37;;;;;;;44.93;22.70;;;8.00;99.90;;;;;;5073743;28;20178;-77
2023/12/14 00:44:03;;;;;;;45.03;23.70;;;8.00;99.90;;;;;;5073626;28;20568;-77
2023/12/14 00:46:28;;;;;;;46.03;22.47;;;8.00;99.90;;;;;;5074060;28;20175;-77
2023/12/14 00:48:54;;;;;;;48.97;25.37;;;8.00;99.90;;;;;;5073649;28;20198;-77
2023/12/14 00:51:19;;;;;;;51.30;25.60;;;8.00;99.90;;;;;;5073969;28;20182;-77
2023/12/14 00:53:45;;;;;;;41.37;20.93;;;8.00;99.90;;;;;;5073534;28;20213;-77
2023/12/14 00:56:10;;;;;;;38.23;19.90;;;7.90;99.90;;;;;;5073762;28;20167;-77
2023/12/14 00:58:36;;;;;;;35.93;19.23;;;7.90;99.90;;;;;;5073498;28;20285;-77
2023/12/14 01:01:02;;;;;;;33.40;18.87;;;7.90;99.90;;;;;;5073681;28;20262;-77
2023/12/14 01:03:27;;;;;;;36.40;19.43;;;7.90;99.90;;;;;;5073135;28;20545;-77
2023/12/14 01:05:53;;;;;;;34.93;18.87;;;7.80;99.90;;;;;;5073254;28;20224;-76
2023/12/14 01:08:18;;;;;;;38.73;20.67;;;7.80;99.90;;;;;;5072973;28;20248;-77
2023/12/14 01:10:44;;;;;;;34.13;19.90;;;7.70;99.90;;;;;;5072675;28;20167;-77
2023/12/14 01:13:09;;;;;;;31.97;18.20;;;7.70;99.90;;;;;;5055083;28;20576;-77
2023/12/14 01:15:35;;;;;;;31.10;17.20;;;7.70;99.90;;;;;;5072879;28;20175;-77
2023/12/14 01:18:00;;;;;;;23.97;14.53;;;7.70;99.90;;;;;;5073397;28;20207;-77
2023/12/14 01:20:27;;;;;;;23.53;14.60;;;7.70;99.90;;;;;;5055464;28;20601;-77
2023/12/14 01:22:52;;;;;;;26.07;14.30;;;7.70;99.90;;;;;;5072804;28;20171;-77
2023/12/14 01:25:18;;;;;;;20.37;13.23;;;7.70;99.90;;;;;;5073173;28;20177;-77
2023/12/14 01:27:43;;;;;;;22.40;12.73;;;7.70;99.90;;;;;;5072671;28;20575;-77
2023/12/14 01:30:09;;;;;;;19.40;11.97;;;7.70;99.90;;;;;;5072931;28;20209;-77
2023/12/14 01:32:35;;;;;;;17.00;11.97;;;7.70;99.90;;;;;;5072718;28;20202;-77
2023/12/14 01:35:00;;;;;;;19.73;12.07;;;7.70;99.90;;;;;;5072690;28;20171;-77
2023/12/14 01:37:26;;;;;;;17.03;10.27;;;7.60;99.90;;;;;;5072949;28;20189;-77
2023/12/14 01:39:51;;;;;;;16.17;9.47;;;7.60;99.90;;;;;;5073412;28;20171;-77
2023/12/14 01:42:17;;;;;;;11.20;8.60;;;7.60;99.90;;;;;;5055082;28;20175;-77
2023/12/14 01:44:42;;;;;;;11.53;9.10;;;7.50;99.90;;;;;;5073360;28;20171;-78
2023/12/14 01:47:08;;;;;;;11.33;9.27;;;7.50;99.90;;;;;;5072995;28;20570;-77
2023/12/14 01:49:33;;;;;;;11.63;9.80;;;7.50;99.90;;;;;;5072916;28;20639;-78
2023/12/14 01:51:59;;;;;;;10.67;8.80;;;7.50;99.90;;;;;;5072846;28;20209;-77
2023/12/14 01:54:24;;;;;;;10.63;9.03;;;7.40;99.90;;;;;;5073069;28;20178;-76
2023/12/14 01:56:50;;;;;;;11.10;9.00;;;7.40;99.90;;;;;;5072822;28;20175;-78
2023/12/14 01:59:15;;;;;;;13.67;8.77;;;7.40;99.90;;;;;;5072810;28;20649;-77
2023/12/14 02:01:46;;;;;;;11.90;9.30;;;7.40;99.90;;;;;;5054705;28;20175;-77
2023/12/14 02:04:13;;;;;;;10.83;8.97;;;7.40;99.90;;;;;;5054687;28;20256;-76
2023/12/14 02:06:39;;;;;;;12.93;10.80;;;7.40;99.90;;;;;;5054284;28;20171;-77
2023/12/14 02:09:05;;;;;;;15.07;10.83;;;7.40;99.90;;;;;;5072597;28;20242;-77
2023/12/14 02:11:30;;;;;;;18.90;14.30;;;7.30;99.90;;;;;;5072488;28;20171;-77
2023/12/14 02:13:56;;;;;;;16.77;13.93;;;7.30;99.90;;;;;;5073060;28;20172;-77
2023/12/14 02:16:21;;;;;;;18.87;13.90;;;7.30;99.90;;;;;;5076617;28;20197;-77
2023/12/14 02:18:47;;;;;;;17.87;14.23;;;7.30;99.90;;;;;;5058504;28;20195;-78
2023/12/14 02:21:12;;;;;;;19.13;15.10;;;7.30;99.90;;;;;;5076494;28;20639;-77
2023/12/14 02:23:47;;;;;;;17.93;14.23;;;7.20;99.90;;;;;;5076775;28;20171;-77
2023/12/14 02:26:13;;;;;;;19.23;15.27;;;7.20;99.90;;;;;;5076612;28;20159;-77
2023/12/14 02:28:39;;;;;;;18.47;14.40;;;7.10;99.90;;;;;;5076410;28;20190;-78
2023/12/14 02:31:05;;;;;;;19.83;14.93;;;7.20;99.90;;;;;;5076235;28;20542;-77
2023/12/14 02:33:30;;;;;;;22.57;15.03;;;7.10;99.90;;;;;;5076200;28;20660;-77
2023/12/14 02:35:56;;;;;;;20.77;16.37;;;7.10;99.90;;;;;;5076526;28;20552;-77
2023/12/14 02:38:21;;;;;;;20.00;15.90;;;7.10;99.90;;;;;;5075862;28;20194;-77
2023/12/14 02:40:47;;;;;;;24.67;15.97;;;7.10;99.90;;;;;;5076068;28;20643;-77
2023/12/14 02:43:13;;;;;;;19.80;15.70;;;7.10;99.90;;;;;;5076242;28;20646;-77
2023/12/14 02:45:38;;;;;;;25.37;17.30;;;7.10;99.90;;;;;;5076021;28;20174;-78
2023/12/14 02:48:04;;;;;;;24.63;16.40;;;7.10;99.90;;;;;;5075968;28;20282;-77
2023/12/14 02:50:30;;;;;;;25.10;18.17;;;7.00;99.90;;;;;;5076146;28;20170;-77
2023/12/14 02:52:55;;;;;;;24.43;17.80;;;7.00;99.90;;;;;;5075903;28;20195;-77
2023/12/14 02:55:21;;;;;;;23.10;18.07;;;7.10;99.90;;;;;;5075634;28;20159;-77
2023/12/14 02:57:47;;;;;;;26.67;18.27;;;7.10;99.90;;;;;;5075106;28;20194;-77
2023/12/14 03:00:13;;;;;;;31.53;20.87;;;7.10;99.90;;;;;;5075076;28;20171;-77
2023/12/14 03:02:38;;;;;;;27.27;20.53;;;7.00;99.90;;;;;;5075380;28;20171;-77
2023/12/14 03:05:04;;;;;;;26.77;18.87;;;7.00;99.90;;;;;;5075351;28;20174;-77
2023/12/14 03:07:29;;;;;;;23.27;17.43;;;7.00;99.90;;;;;;5075194;28;20191;-77
2023/12/14 03:09:55;;;;;;;26.60;18.63;;;6.90;99.90;;;;;;5075378;28;20171;-77
2023/12/14 03:12:20;;;;;;;23.53;18.03;;;6.90;99.90;;;;;;5075187;28;20297;-77
2023/12/14 03:14:46;;;;;;;24.23;16.27;;;6.80;99.90;;;;;;5075172;28;20259;-77
2023/12/14 03:17:12;;;;;;;25.27;17.23;;;6.80;99.90;;;;;;5075257;28;20190;-77
2023/12/14 03:19:41;;;;;;;21.57;16.33;;;6.80;99.90;;;;;;5075785;28;20224;-77
2023/12/14 03:22:07;;;;;;;23.57;16.60;;;6.80;99.90;;;;;;5075503;28;20542;-77
2023/12/14 03:24:33;;;;;;;22.97;15.30;;;6.80;99.90;;;;;;5075461;28;20182;-78
2023/12/14 03:26:58;;;;;;;27.27;16.17;;;6.80;99.90;;;;;;5074392;28;20181;-77
2023/12/14 03:29:24;;;;;;;21.87;15.70;;;6.80;99.90;;;;;;5074755;28;20166;-77
2023/12/14 03:31:49;;;;;;;25.93;16.37;;;6.80;99.90;;;;;;5074513;28;20233;-77
2023/12/14 03:34:15;;;;;;;22.93;16.50;;;6.80;99.90;;;;;;5074638;28;20163;-77
2023/12/14 03:36:40;;;;;;;24.23;16.10;;;6.80;99.90;;;;;;5076160;28;20232;-77
2023/12/14 03:39:06;;;;;;;24.03;16.33;;;6.80;99.90;;;;;;5075195;28;20195;-77
2023/12/14 03:41:32;;;;;;;20.90;15.07;;;6.80;99.90;;;;;;5075051;28;20171;-77
2023/12/14 03:43:57;;;;;;;24.17;15.87;;;6.80;99.90;;;;;;5057353;28;20178;-77
2023/12/14 03:46:23;;;;;;;21.90;14.13;;;6.80;99.90;;;;;;5075523;28;20239;-77
2023/12/14 03:48:48;;;;;;;21.60;14.70;;;6.70;99.90;;;;;;5057032;28;20190;-76
2023/12/14 03:51:18;;;;;;;21.27;14.80;;;6.70;99.90;;;;;;5074601;28;20167;-76
2023/12/14 03:53:44;;;;;;;22.23;14.00;;;6.80;99.90;;;;;;5074457;28;20191;-76
2023/12/14 03:56:09;;;;;;;23.47;16.57;;;6.70;99.90;;;;;;5073855;28;20222;-75
2023/12/14 03:58:35;;;;;;;22.63;15.90;;;6.70;99.90;;;;;;5073761;28;20191;-76
2023/12/14 04:01:00;;;;;;;23.03;15.20;;;6.70;99.90;;;;;;5073739;28;20542;-76
2023/12/14 04:03:26;;;;;;;23.80;15.30;;;6.70;99.90;;;;;;5073956;28;20517;-76
2023/12/14 04:05:51;;;;;;;24.30;15.13;;;6.70;99.90;;;;;;5073840;28;20172;-76
2023/12/14 04:08:17;;;;;;;25.17;16.20;;;6.70;99.90;;;;;;5055732;28;20194;-76
2023/12/14 04:10:42;;;;;;;30.63;17.70;;;6.70;99.90;;;;;;5073784;28;20174;-77
2023/12/14 04:13:08;;;;;;;28.23;19.00;;;6.70;99.90;;;;;;5073501;28;20225;-76
2023/12/14 04:15:33;;;;;;;27.77;18.50;;;6.70;99.90;;;;;;5073561;28;20167;-76
2023/12/14 04:17:59;;;;;;;32.50;19.07;;;6.70;99.90;;;;;;5073342;28;20187;-75
2023/12/14 04:20:24;;;;;;;34.40;19.43;;;6.70;99.90;;;;;;5073645;28;20265;-76
2023/12/14 04:22:50;;;;;;;30.80;18.67;;;6.70;99.90;;;;;;5073371;28;20228;-76
2023/12/14 04:25:15;;;;;;;31.87;20.60;;;6.70;99.90;;;;;;5074736;28;20171;-78
2023/12/14 04:27:41;;;;;;;33.90;20.93;;;6.70;99.90;;;;;;5074295;28;20193;-78
2023/12/14 04:30:10;;;;;;;34.37;21.97;;;6.70;99.90;;;;;;5074623;28;20269;-78
2023/12/14 04:32:36;;;;;;;37.37;21.43;;;6.70;99.90;;;;;;5074254;28;20554;-79
2023/12/14 04:35:02;;;;;;;34.43;20.70;;;6.60;99.90;;;;;;5073387;28;20206;-77
2023/12/14 04:37:28;;;;;;;33.77;21.97;;;6.60;99.90;;;;;;5072352;28;20615;-77
2023/12/14 04:39:53;;;;;;;32.27;21.53;;;6.60;99.90;;;;;;5073274;28;20175;-75
2023/12/14 04:42:19;;;;;;;28.83;21.03;;;6.60;99.90;;;;;;5072838;28;20183;-76
2023/12/14 04:44:44;;;;;;;32.50;20.40;;;6.60;99.90;;;;;;5073103;28;20304;-76
2023/12/14 04:47:10;;;;;;;30.33;20.27;;;6.60;99.90;;;;;;5073327;28;20205;-76
2023/12/14 04:49:35;;;;;;;32.97;21.23;;;6.50;99.90;;;;;;5073334;28;20171;-76
2023/12/14 04:52:01;;;;;;;30.57;20.30;;;6.50;99.90;;;;;;5073076;28;20712;-76
2023/12/14 04:54:26;;;;;;;30.83;20.70;;;6.50;99.90;;;;;;5072861;28;20254;-76
2023/12/14 04:56:52;;;;;;;34.33;21.63;;;6.50;99.90;;;;;;5072942;28;20260;-76
2023/12/14 04:59:17;;;;;;;30.07;20.83;;;6.50;99.90;;;;;;5072616;28;20245;-76
2023/12/14 05:01:43;;;;;;;34.87;21.83;;;6.50;99.90;;;;;;5072474;28;20179;-76
2023/12/14 05:04:09;;;;;;;37.70;22.27;;;6.50;99.90;;;;;;5072428;28;20609;-76
2023/12/14 05:06:35;;;;;;;35.50;22.03;;;6.50;99.90;;;;;;5072452;28;20171;-76
2023/12/14 05:09:03;;;;;;;38.30;22.97;;;6.50;99.90;;;;;;5054301;28;20187;-76
2023/12/14 05:11:29;;;;;;;36.03;21.43;;;6.40;99.90;;;;;;5072341;28;20246;-76
2023/12/14 05:13:54;;;;;;;33.97;22.50;;;6.50;99.90;;;;;;5072213;28;20289;-76
2023/12/14 05:16:20;;;;;;;33.17;20.87;;;6.50;99.90;;;;;;5072796;28;20171;-76
2023/12/14 05:18:45;;;;;;;34.37;21.23;;;6.50;99.90;;;;;;5072351;28;20232;-76
2023/12/14 05:21:17;;;;;;;31.90;20.00;;;6.40;99.90;;;;;;5072359;28;20170;-76
2023/12/14 05:23:43;;;;;;;32.40;20.60;;;6.50;99.90;;;;;;5072801;28;20240;-76
2023/12/14 05:26:08;;;;;;;31.90;20.17;;;6.40;99.90;;;;;;5072339;28;20566;-77
2023/12/14 05:28:35;;;;;;;33.83;21.50;;;6.50;99.90;;;;;;5072314;28;20275;-76
2023/12/14 05:31:00;;;;;;;28.57;19.47;;;6.50;99.90;;;;;;5072150;28;20170;-76
2023/12/14 05:33:26;;;;;;;30.20;18.57;;;6.50;99.90;;;;;;5072241;28;20525;-76
2023/12/14 05:35:51;;;;;;;32.57;19.43;;;6.40;99.90;;;;;;5072146;28;20179;-76
2023/12/14 05:38:17;;;;;;;28.77;19.07;;;6.40;99.90;;;;;;5072552;28;20194;-77
2023/12/14 05:40:43;;;;;;;24.47;17.00;;;6.40;99.90;;;;;;5071990;28;20198;-76
2023/12/14 05:43:09;;;;;;;27.13;18.17;;;6.40;99.90;;;;;;5072215;28;20666;-76
2023/12/14 05:45:35;;;;;;;23.40;17.03;;;6.40;99.90;;;;;;5072163;28;20665;-77
2023/12/14 05:48:01;;;;;;;29.30;18.83;;;6.40;99.90;;;;;;5072355;28;20191;-77
2023/12/14 05:50:27;;;;;;;26.37;16.63;;;6.30;99.90;;;;;;5076675;28;20257;-77
2023/12/14 05:52:53;;;;;;;26.97;16.70;;;6.40;99.90;;;;;;5076121;28;20274;-77
2023/12/14 05:55:21;;;;;;;28.33;17.23;;;6.40;99.90;;;;;;5076111;28;20308;-76
2023/12/14 05:57:47;;;;;;;28.50;17.83;;;6.30;99.90;;;;;;5076036;28;20191;-76
2023/12/14 06:00:13;;;;;;;23.87;16.40;;;6.30;99.90;;;;;;5076045;28;20312;-77
2023/12/14 06:02:39;;;;;;;26.17;17.77;;;6.30;99.90;;;;;;5076018;28;20175;-76
2023/12/14 06:05:06;;;;;;;25.93;16.53;;;6.30;99.90;;;;;;5076051;28;20262;-77
2023/12/14 06:07:32;;;;;;;26.90;16.53;;;6.30;99.90;;;;;;5076051;28;20602;-77
2023/12/14 06:09:57;;;;;;;25.50;16.93;;;6.30;99.90;;;;;;5076170;28;20178;-77
2023/12/14 06:12:23;;;;;;;26.27;17.90;;;6.30;99.90;;;;;;5075921;28;20670;-77
2023/12/14 06:14:49;;;;;;;29.13;18.17;;;6.40;99.90;;;;;;5058168;28;20178;-76
2023/12/14 06:17:15;;;;;;;26.27;18.63;;;6.30;99.90;;;;;;5075618;28;20183;-76
2023/12/14 06:19:41;;;;;;;32.57;18.73;;;6.30;99.90;;;;;;5075557;28;20673;-76
2023/12/14 06:22:06;;;;;;;33.83;21.07;;;6.30;99.90;;;;;;5057593;28;20175;-77
2023/12/14 06:24:32;;;;;;;32.27;20.73;;;6.30;99.90;;;;;;5076067;28;20178;-76
2023/12/14 06:26:57;;;;;;;30.20;20.37;;;6.30;99.90;;;;;;5075456;28;20555;-76
2023/12/14 06:29:23;;;;;;;32.27;19.37;;;6.20;99.90;;;;;;5075544;28;20171;-77
2023/12/14 06:31:49;;;;;;;30.33;19.93;;;6.30;99.90;;;;;;5075278;28;20195;-77
2023/12/14 06:34:14;;;;;;;33.63;20.40;;;6.30;99.90;;;;;;5075651;28;20216;-77
2023/12/14 06:36:46;;;;;;;34.17;21.13;;;6.30;99.90;;;;;;5075378;28;20175;-77
2023/12/14 06:39:12;;;;;;;41.33;22.97;;;6.30;99.90;;;;;;5075530;28;20223;-77
2023/12/14 06:41:38;;;;;;;30.37;20.33;;;6.40;99.90;;;;;;5057593;28;20183;-77
2023/12/14 06:44:03;;;;;;;32.97;19.90;;;6.30;99.90;;;;;;5075803;28;20187;-77
2023/12/14 06:46:29;;;;;;;31.10;19.90;;;6.30;99.90;;;;;;5075235;28;20186;-76
2023/12/14 06:48:55;;;;;;;36.87;20.37;;;6.30;99.90;;;;;;5075022;28;20210;-77
2023/12/14 06:51:21;;;;;;;34.63;20.93;;;6.30;99.90;;;;;;5075148;28;20199;-77
2023/12/14 06:53:47;;;;;;;29.10;19.20;;;6.30;99.90;;;;;;5074964;28;20198;-77
2023/12/14 06:56:13;;;;;;;32.77;20.50;;;6.40;99.90;;;;;;5074928;28;20167;-77
2023/12/14 06:58:43;;;;;;;31.83;20.00;;;6.30;99.90;;;;;;5057052;28;20404;-77
2023/12/14 07:01:17;;;;;;;38.43;23.47;;;6.30;99.90;;;;;;5074086;28;20167;-77
2023/12/14 07:03:44;;;;;;;45.83;25.90;;;6.30;99.90;;;;;;5075231;28;20189;-77
2023/12/14 07:06:18;;;;;;;40.97;23.93;;;6.30;99.90;;;;;;5056754;28;20209;-77
2023/12/14 07:08:44;;;;;;;44.77;25.00;;;6.30;99.90;;;;;;5074647;28;20256;-77
2023/12/14 07:11:10;;;;;;;45.37;27.60;;;6.30;99.90;;;;;;5074722;28;20175;-77
2023/12/14 07:13:36;;;;;;;46.13;26.70;;;6.30;99.90;;;;;;5074598;28;20194;-77
2023/12/14 07:16:09;;;;;;;44.53;26.17;;;6.30;99.90;;;;;;5074638;28;20167;-77
2023/12/14 07:18:40;;;;;;;43.10;24.83;;;6.20;99.90;;;;;;5074533;28;20590;-77
2023/12/14 07:21:06;;;;;;;42.67;25.83;;;6.20;99.90;;;;;;5074513;28;20171;-76
2023/12/14 07:23:32;;;;;;;43.87;26.73;;;6.30;99.90;;;;;;5074691;28;20606;-77
2023/12/14 07:25:57;;;;;;;40.70;24.77;;;6.20;99.90;;;;;;5074305;28;20254;-77
2023/12/14 07:28:23;;;;;;;48.50;28.40;;;6.20;99.90;;;;;;5074502;28;20195;-76
2023/12/14 07:30:49;;;;;;;46.70;27.00;;;6.20;99.90;;;;;;5074231;28;20641;-76
2023/12/14 07:33:15;;;;;;;53.60;30.63;;;6.20;99.90;;;;;;5074088;28;20651;-77
2023/12/14 07:35:41;;;;;;;44.60;29.00;;;6.10;99.90;;;;;;5074417;28;20181;-77
2023/12/14 07:38:06;;;;;;;57.37;30.87;;;6.10;99.90;;;;;;5074071;28;20190;-77
2023/12/14 07:40:32;;;;;;;54.30;29.77;;;6.10;99.90;;;;;;5074261;28;20642;-77
2023/12/14 07:42:58;;;;;;;56.40;31.50;;;6.10;99.90;;;;;;5074031;28;20171;-77
2023/12/14 07:45:23;;;;;;;55.53;32.93;;;6.10;99.90;;;;;;5073971;28;20596;-77
2023/12/14 07:47:49;;;;;;;58.33;32.60;;;6.10;99.90;;;;;;5074235;28;20279;-77
2023/12/14 07:50:14;;;;;;;58.53;33.10;;;6.00;99.90;;;;;;5073914;28;20272;-77
2023/12/14 07:52:41;;;;;;;59.90;33.63;;;6.00;99.90;;;;;;5074022;28;20198;-77
2023/12/14 07:55:07;;;;;;;67.60;33.33;;;6.00;99.90;;;;;;5074133;28;20193;-77
2023/12/14 07:57:33;;;;;;;58.47;32.43;;;6.00;99.90;;;;;;5060840;28;20221;-75
2023/12/14 07:59:58;;;;;;;56.27;33.30;;;6.10;99.90;;;;;;5084980;28;20191;-76
2023/12/14 08:02:24;;;;;;;59.37;33.90;;;6.00;99.90;;;;;;5075084;28;20213;-76
2023/12/14 08:04:49;;;;;;;60.57;33.13;;;6.00;99.90;;;;;;5059957;28;20182;-76
2023/12/14 08:07:15;;;;;;;53.83;31.37;;;6.00;99.90;;;;;;5081636;28;20191;-76
2023/12/14 08:09:41;;;;;;;53.30;29.90;;;6.00;99.90;;;;;;5076804;28;20178;-75
2023/12/14 08:12:06;;;;;;;52.30;31.40;;;6.00;99.90;;;;;;5075692;28;20190;-75
2023/12/14 08:14:37;;;;;;;51.90;30.97;;;6.00;99.90;;;;;;5077407;28;20178;-75
2023/12/14 08:17:02;;;;;;;47.27;26.93;;;6.00;99.90;;;;;;5076850;28;20170;-75
2023/12/14 08:19:28;;;;;;;49.00;27.83;;;6.00;99.90;;;;;;5059520;28;20549;-75
2023/12/14 08:21:54;;;;;;;49.93;31.43;;;6.00;99.90;;;;;;5076392;28;20239;-74
2023/12/14 08:24:19;;;;;;;52.00;31.83;;;6.00;99.90;;;;;;5075246;28;20278;-75
2023/12/14 08:26:45;;;;;;;53.70;31.03;;;5.90;99.90;;;;;;5075196;28;20323;-75
2023/12/14 08:29:10;;;;;;;64.03;30.50;;;5.90;99.90;;;;;;5074274;28;20201;-75
2023/12/14 08:31:36;;;;;;;50.57;31.37;;;5.90;99.90;;;;;;5075385;28;20243;-76
2023/12/14 08:34:03;;;;;;;52.30;31.20;;;5.90;99.90;;;;;;5074474;28;20230;-75
2023/12/14 08:36:28;;;;;;;46.97;29.13;;;6.00;99.90;;;;;;5074914;28;20166;-75
2023/12/14 08:38:54;;;;;;;47.13;28.67;;;6.00;99.90;;;;;;5074263;28;20554;-76
2023/12/14 08:41:20;;;;;;;47.57;29.10;;;6.00;99.90;;;;;;5074283;28;20163;-75
2023/12/14 08:43:45;;;;;;;47.83;28.60;;;5.90;99.90;;;;;;5073815;28;20545;-75
2023/12/14 08:46:11;;;;;;;44.10;29.07;;;5.90;99.90;;;;;;5074036;28;20178;-75
2023/12/14 08:48:37;;;;;;;44.83;29.93;;;5.90;99.90;;;;;;5074345;28;20221;-75
2023/12/14 08:51:04;;;;;;;46.77;26.80;;;5.90;99.90;;;;;;5075013;28;20171;-75
2023/12/14 08:53:29;;;;;;;47.03;26.63;;;5.90;99.90;;;;;;5074409;28;20202;-75
2023/12/14 08:55:55;;;;;;;46.67;27.33;;;5.90;99.90;;;;;;5074680;28;20591;-75
2023/12/14 08:58:21;;;;;;;44.60;28.00;;;6.00;99.90;;;;;;5056398;28;20206;-75
2023/12/14 09:00:46;;;;;;;44.63;27.67;;;5.90;99.90;;;;;;5074558;28;20175;-75
2023/12/14 09:03:12;;;;;;;49.33;27.87;;;5.90;99.90;;;;;;5074563;28;20309;-75
2023/12/14 09:05:41;;;;;;;44.30;27.13;;;5.80;99.90;;;;;;5074674;28;20174;-75
2023/12/14 09:08:07;;;;;;;44.23;27.23;;;5.80;99.90;;;;;;5074580;28;20206;-75
2023/12/14 09:10:33;;;;;;;42.13;26.73;;;5.80;99.90;;;;;;5074983;28;20278;-75
2023/12/14 09:13:00;;;;;;;38.93;25.87;;;5.80;99.90;;;;;;5074441;28;20276;-75
2023/12/14 09:15:25;;;;;;;40.93;27.33;;;5.80;99.90;;;;;;5074270;28;20646;-76
2023/12/14 09:17:51;;;;;;;45.03;27.70;;;5.80;99.90;;;;;;5074187;28;20248;-75
2023/12/14 09:20:16;;;;;;;39.93;26.30;;;5.80;99.90;;;;;;5074596;28;20608;-75
2023/12/14 09:22:42;;;;;;;46.07;26.67;;;5.90;99.90;;;;;;5073867;28;20240;-75
2023/12/14 09:25:09;;;;;;;40.33;26.63;;;5.90;99.90;;;;;;5074025;28;20254;-75
2023/12/14 09:27:34;;;;;;;41.73;26.90;;;5.90;99.90;;;;;;5074307;28;20186;-75
2023/12/14 09:30:00;;;;;;;40.87;25.67;;;5.90;99.90;;;;;;5074567;28;20724;-75
2023/12/14 09:32:25;;;;;;;38.37;25.30;;;5.90;99.90;;;;;;5074081;28;20267;-75
2023/12/14 09:34:56;;;;;;;40.93;26.17;;;6.00;99.90;;;;;;5056900;28;20198;-75
2023/12/14 09:37:22;;;;;;;40.43;24.77;;;6.00;99.90;;;;;;5074467;28;20561;-75
2023/12/14 09:39:47;;;;;;;36.67;24.80;;;6.00;99.90;;;;;;5074107;28;20250;-75
2023/12/14 09:42:19;;;;;;;38.10;25.73;;;5.90;99.90;;;;;;5073682;28;20171;-75
2023/12/14 09:44:46;;;;;;;37.67;24.60;;;5.90;99.90;;;;;;5073850;28;20630;-75
2023/12/14 09:47:12;;;;;;;37.23;24.90;;;5.90;99.90;;;;;;5076392;28;20702;-75
2023/12/14 09:49:40;;;;;;;37.60;24.93;;;5.80;99.90;;;;;;5075064;28;20216;-75
2023/12/14 09:52:06;;;;;;;36.03;24.20;;;5.80;99.90;;;;;;5074212;28;20207;-76
2023/12/14 09:54:31;;;;;;;32.63;23.13;;;5.90;99.90;;;;;;5074181;28;20178;-75
2023/12/14 09:56:57;;;;;;;34.37;23.40;;;5.80;99.90;;;;;;5073253;28;20174;-75
2023/12/14 09:59:22;;;;;;;31.27;21.90;;;5.80;99.90;;;;;;5073878;28;20175;-75
2023/12/14 10:01:48;;;;;;;35.80;23.37;;;5.80;99.90;;;;;;5072829;28;20178;-75
2023/12/14 10:04:15;;;;;;;31.13;22.40;;;5.90;99.90;;;;;;5073004;28;20643;-75
2023/12/14 10:06:43;;;;;;;31.43;22.87;;;5.90;99.90;;;;;;5073702;28;20189;-75
2023/12/14 10:09:09;;;;;;;32.60;21.97;;;6.00;99.90;;;;;;5073394;28;20195;-76
2023/12/14 10:11:38;;;;;;;32.17;21.87;;;6.00;99.90;;;;;;5073611;28;20206;-76
2023/12/14 10:14:25;;;;;;;31.33;21.47;;;6.00;99.90;;;;;;5073033;28;20199;-75
2023/12/14 10:16:51;;;;;;;29.30;21.10;;;6.00;99.90;;;;;;5072543;28;20171;-75
2023/12/14 10:19:18;;;;;;;31.67;21.37;;;6.00;99.90;;;;;;5072938;28;20217;-75
2023/12/14 10:21:46;;;;;;;29.60;20.87;;;6.00;99.90;;;;;;5072914;28;20178;-75
2023/12/14 10:24:13;;;;;;;30.57;22.27;;;6.00;99.90;;;;;;5073371;28;20566;-75
2023/12/14 10:26:38;;;;;;;32.37;22.27;;;6.10;99.90;;;;;;5073785;28;20198;-75
2023/12/14 10:29:04;;;;;;;29.13;21.37;;;6.00;99.90;;;;;;5072251;28;20201;-75
2023/12/14 10:31:37;;;;;;;26.73;20.47;;;6.00;99.90;;;;;;5071867;28;20187;-75
2023/12/14 10:34:03;;;;;;;26.53;20.57;;;5.90;99.90;;;;;;5072122;28;20218;-75
2023/12/14 10:36:30;;;;;;;30.00;20.10;;;5.90;99.90;;;;;;5074660;28;20168;-75
2023/12/14 10:38:57;;;;;;;27.80;20.53;;;5.90;99.90;;;;;;5075933;28;20195;-75
2023/12/14 10:41:24;;;;;;;28.27;18.53;;;6.00;99.90;;;;;;5075967;28;20646;-75
2023/12/14 10:43:54;;;;;;;25.30;17.07;;;6.00;99.90;;;;;;5075592;28;20262;-75
2023/12/14 10:46:20;;;;;;;21.57;16.57;;;6.00;99.90;;;;;;5075473;28;20175;-76
2023/12/14 10:48:53;;;;;;;21.17;15.33;;;6.00;99.90;;;;;;5075304;28;20206;-76
2023/12/14 10:51:20;;;;;;;24.17;16.90;;;6.00;99.90;;;;;;5075396;28;20171;-76
2023/12/14 10:53:48;;;;;;;24.17;17.30;;;6.00;99.90;;;;;;5075192;28;20199;-76
2023/12/14 10:56:14;;;;;;;20.47;15.07;;;5.90;99.90;;;;;;5076704;28;20320;-75
2023/12/14 10:58:48;;;;;;;19.50;15.00;;;5.90;99.90;;;;;;5076943;28;20603;-76
2023/12/14 11:01:18;;;;;;;21.03;14.23;;;5.90;99.90;;;;;;5077517;28;20257;-76
2023/12/14 11:03:44;;;;;;;19.83;14.83;;;5.90;99.90;;;;;;5079080;28;20550;-75
2023/12/14 11:06:24;;;;;;;18.93;13.90;;;5.90;99.90;;;;;;5077038;28;20199;-75
2023/12/14 11:08:54;;;;;;;18.17;13.27;;;5.90;99.90;;;;;;5077616;28;20236;-77
2023/12/14 11:11:20;;;;;;;19.20;13.97;;;5.90;99.90;;;;;;5077533;28;20183;-76
2023/12/14 11:13:52;;;;;;;18.13;14.87;;;5.90;99.90;;;;;;5075655;28;20214;-74
2023/12/14 11:16:22;;;;;;;18.33;15.13;;;5.90;99.90;;;;;;5075469;28;20282;-76
2023/12/14 11:18:47;;;;;;;18.80;14.80;;;5.90;99.90;;;;;;5075217;28;20195;-76
2023/12/14 11:21:19;;;;;;;18.43;14.70;;;5.90;99.90;;;;;;5075540;28;20163;-76
2023/12/14 11:23:44;;;;;;;19.97;14.63;;;5.90;99.90;;;;;;5075938;28;20218;-75
2023/12/14 11:26:11;;;;;;;16.50;13.63;;;5.90;99.90;;;;;;5075896;28;20638;-75
2023/12/14 11:28:38;;;;;;;17.43;13.73;;;5.90;99.90;;;;;;5075944;28;20601;-76
2023/12/14 11:31:06;;;;;;;19.17;14.13;;;5.80;99.90;;;;;;5075138;28;20167;-76
2023/12/14 11:33:35;;;;;;;17.63;14.17;;;5.90;99.90;;;;;;5075249;28;20210;-75
2023/12/14 11:36:03;;;;;;;26.40;14.70;;;5.90;99.90;;;;;;5059241;28;20251;-76
2023/12/14 11:38:29;;;;;;;18.07;13.13;;;5.90;99.90;;;;;;5056303;28;20238;-76
2023/12/14 11:40:54;;;;;;;18.83;13.30;;;5.90;99.90;;;;;;5055497;28;20180;-75
2023/12/14 11:43:24;;;;;;;18.17;13.03;;;5.90;99.90;;;;;;5072514;28;20557;-75
2023/12/14 11:45:50;;;;;;;16.07;11.60;;;5.90;99.90;;;;;;5066004;28;20194;-75
2023/12/14 11:48:16;;;;;;;14.40;10.77;;;5.90;99.90;;;;;;5054720;28;20200;-75
2023/12/14 11:50:42;;;;;;;16.20;11.40;;;6.00;99.90;;;;;;5054801;28;20245;-74
2023/12/14 11:53:09;;;;;;;18.33;11.63;;;5.90;99.90;;;;;;5054096;28;20203;-74
2023/12/14 11:55:37;;;;;;;16.87;11.33;;;6.00;99.90;;;;;;5053661;28;20187;-75
2023/12/14 11:58:04;;;;;;;13.23;10.30;;;5.90;99.90;;;;;;5053587;28;20199;-76
2023/12/14 12:00:31;;;;;;;15.50;10.97;;;5.90;99.90;;;;;;5053929;28;20557;-75
2023/12/14 12:03:20;;;;;;;17.10;10.97;;;5.90;99.90;;;;;;5053586;28;20623;-75
2023/12/14 12:05:51;;;;;;;18.60;10.70;;;6.00;99.90;;;;;;5050125;28;20194;-75
2023/12/14 12:08:20;;;;;;;16.67;10.27;;;5.80;99.90;;;;;;5073772;28;20231;-75
2023/12/14 12:10:46;;;;;;;15.17;10.40;;;5.80;99.90;;;;;;5073412;28;20229;-75
2023/12/14 12:13:14;;;;;;;14.90;10.03;;;5.80;99.90;;;;;;5073519;28;20199;-75
2023/12/14 12:15:40;;;;;;;14.70;9.97;;;5.90;99.90;;;;;;5066690;28;20320;-75
2023/12/14 12:18:08;;;;;;;13.33;9.57;;;5.90;99.90;;;;;;5053461;28;20286;-76
2023/12/14 12:20:34;;;;;;;14.10;9.80;;;5.80;99.90;;;;;;5053517;28;20172;-76
2023/12/14 12:23:00;;;;;;;13.80;10.17;;;5.80;99.90;;;;;;5053512;28;20183;-75
2023/12/14 12:25:27;;;;;;;12.80;9.97;;;5.70;99.90;;;;;;5056401;28;20198;-76
2023/12/14 12:27:56;;;;;;;14.00;9.80;;;5.70;99.90;;;;;;5073030;28;20304;-76
2023/12/14 12:30:23;;;;;;;13.60;10.33;;;5.70;99.90;;;;;;5073312;28;20278;-76
2023/12/14 12:32:49;;;;;;;13.07;9.57;;;5.70;99.90;;;;;;5072771;28;20283;-76